Time;durP1;ratioP1;P1;durP2;ratioP2;P2;SDS_P1;SDS_P2;PMS_P1;PMS_P2;Temp;Humidity;BMP_temperature;BMP_pressure;BME280_temperature;BME280_humidity;BME280_pressure;Samples;Min_cycle;Max_cycle;Signal;HPM_P1;HPM_P2
2022/05/17 00:01:30;;;;;;;9.23;4.68;;;;;;;19.57;52.30;101872.03;5132921;27;20035;-61
2022/05/17 00:03:57;;;;;;;7.05;4.40;;;;;;;19.55;52.52;101868.59;5117140;28;20171;-61
2022/05/17 00:06:26;;;;;;;6.93;4.75;;;;;;;19.54;52.35;101869.59;5114116;28;20486;-61
2022/05/17 00:08:52;;;;;;;8.70;4.53;;;;;;;19.54;52.50;101869.59;5113843;28;20035;-61
2022/05/17 00:11:19;;;;;;;8.35;4.70;;;;;;;19.55;52.61;101872.19;5113787;28;20055;-61
2022/05/17 00:13:45;;;;;;;8.20;4.90;;;;;;;19.55;52.65;101871.31;5130841;27;20043;-62
2022/05/17 00:16:12;;;;;;;6.55;4.43;;;;;;;19.55;52.69;101864.00;5134427;27;20058;-60
2022/05/17 00:18:39;;;;;;;8.13;4.70;;;;;;;19.55;52.41;101869.44;5134497;27;20043;-61
2022/05/17 00:21:05;;;;;;;8.93;5.35;;;;;;;19.54;52.52;101862.28;5134491;27;20039;-60
2022/05/17 00:23:36;;;;;;;7.85;4.78;;;;;;;19.53;52.41;101866.00;5133367;28;20047;-61
2022/05/17 00:26:04;;;;;;;6.40;4.57;;;;;;;19.52;52.66;101871.56;5134472;27;20412;-60
2022/05/17 00:28:31;;;;;;;6.95;5.00;;;;;;;19.51;52.61;101872.56;5134626;27;20148;-60
2022/05/17 00:30:58;;;;;;;10.10;4.70;;;;;;;19.51;52.75;101872.56;5132473;28;20042;-61
2022/05/17 00:33:25;;;;;;;8.38;4.35;;;;;;;19.47;52.65;101877.44;5133513;27;20138;-61
2022/05/17 00:35:51;;;;;;;11.63;5.00;;;;;;;19.44;52.52;101872.28;5132855;28;20126;-61
2022/05/17 00:38:18;;;;;;;7.40;4.25;;;;;;;19.42;52.61;101874.28;5134283;28;20050;-60
2022/05/17 00:40:45;;;;;;;8.48;4.63;;;;;;;19.40;52.63;101867.25;5134007;27;20039;-60
2022/05/17 00:43:20;;;;;;;9.07;4.80;;;;;;;19.39;52.56;101865.53;5132870;27;20043;-60
2022/05/17 00:45:50;;;;;;;8.07;4.70;;;;;;;19.36;52.85;101861.22;5133499;28;20043;-61
2022/05/17 00:48:19;;;;;;;6.75;4.95;;;;;;;19.33;52.57;101864.22;5134194;28;20396;-61
2022/05/17 00:50:49;;;;;;;7.82;4.65;;;;;;;19.29;52.71;101865.47;5134596;28;20039;-60
2022/05/17 00:53:32;;;;;;;10.32;5.18;;;;;;;19.26;53.04;101861.19;5132387;28;20043;-60
2022/05/17 00:56:02;;;;;;;8.45;5.07;;;;;;;19.24;52.66;101862.31;5115750;28;20047;-61
2022/05/17 00:58:48;;;;;;;9.52;4.97;;;;;;;19.22;52.85;101864.31;5134061;28;20074;-61
2022/05/17 01:01:26;;;;;;;8.30;5.03;;;;;;;19.16;52.73;101860.28;5134221;28;20054;-61
2022/05/17 01:03:57;;;;;;;6.60;4.70;;;;;;;19.12;53.13;101856.13;5133401;28;20293;-60
2022/05/17 01:06:48;;;;;;;6.95;4.40;;;;;;;19.05;52.90;101846.81;5134014;28;20049;-61
2022/05/17 01:09:15;;;;;;;9.88;5.03;;;;;;;18.98;52.76;101851.94;5133274;28;20096;-60
2022/05/17 01:11:42;;;;;;;8.88;4.95;;;;;;;18.90;53.35;101850.91;5134035;27;20047;-60
2022/05/17 01:16:55;;;;;;;9.00;5.30;;;;;;;18.75;53.34;101857.75;5133642;27;20035;-60
2022/05/17 01:19:22;;;;;;;6.85;5.20;;;;;;;18.67;53.38;101856.56;5132763;28;20118;-61
2022/05/17 01:21:48;;;;;;;8.95;5.10;;;;;;;18.67;53.53;101864.72;5133408;28;20050;-61
2022/05/17 01:24:15;;;;;;;7.65;5.20;;;;;;;18.66;53.66;101862.16;5133497;28;20042;-60
2022/05/17 01:26:44;;;;;;;10.48;5.60;;;;;;;18.62;53.82;101855.25;5126518;28;20058;-60
2022/05/17 01:29:12;;;;;;;8.90;5.32;;;;;;;18.58;53.65;101856.47;5134980;27;20047;-61
2022/05/17 01:31:39;;;;;;;8.63;5.60;;;;;;;18.53;54.14;101846.00;5137265;27;20043;-60
2022/05/17 01:34:10;;;;;;;7.68;5.35;;;;;;;18.51;54.24;101853.44;5136958;27;20046;-61
2022/05/17 01:36:39;;;;;;;6.93;4.90;;;;;;;18.51;54.29;101855.28;5137351;27;20489;-61
2022/05/17 01:39:05;;;;;;;9.20;4.88;;;;;;;18.52;54.21;101854.28;5135171;27;20046;-61
2022/05/17 01:41:32;;;;;;;10.15;5.22;;;;;;;18.54;54.25;101857.72;5137575;27;20043;-61
2022/05/17 01:43:59;;;;;;;11.20;5.68;;;;;;;18.54;54.42;101850.44;5136888;27;20039;-60
2022/05/17 01:46:26;;;;;;;6.82;4.45;;;;;;;18.54;54.60;101845.00;5137650;27;20039;-61
2022/05/17 01:48:53;;;;;;;9.23;4.85;;;;;;;18.55;54.75;101837.69;5134779;27;20050;-60
2022/05/17 01:51:20;;;;;;;8.40;5.55;;;;;;;18.53;54.80;101848.72;5136934;27;20039;-61
2022/05/17 01:53:47;;;;;;;9.80;5.55;;;;;;;18.54;54.58;101852.28;5136665;27;20066;-60
2022/05/17 01:56:14;;;;;;;11.38;5.50;;;;;;;18.55;55.03;101846.72;5136858;27;20375;-61
2022/05/17 01:58:40;;;;;;;8.63;5.25;;;;;;;18.57;55.01;101839.28;5135348;27;20481;-61
2022/05/17 02:01:09;;;;;;;9.43;5.18;;;;;;;18.59;54.75;101847.34;5135321;27;20035;-60
2022/05/17 02:03:36;;;;;;;9.23;4.85;;;;;;;18.61;54.93;101850.78;5136447;27;20572;-61
2022/05/17 02:06:03;;;;;;;11.48;5.20;;;;;;;18.63;54.92;101854.25;5136816;27;20386;-61
2022/05/17 02:08:30;;;;;;;10.13;4.70;;;;;;;18.65;55.28;101849.53;5135931;27;20362;-61
2022/05/17 02:10:57;;;;;;;10.70;5.53;;;;;;;18.70;55.29;101856.28;5135345;27;20036;-61
2022/05/17 02:13:23;;;;;;;8.52;5.03;;;;;;;18.73;55.42;101849.72;5136390;27;20397;-61
2022/05/17 02:15:50;;;;;;;8.20;5.22;;;;;;;18.76;54.94;101863.03;5136295;27;20481;-61
2022/05/17 02:18:16;;;;;;;8.82;5.57;;;;;;;18.77;55.00;101863.91;5132843;27;20055;-61
2022/05/17 02:20:43;;;;;;;10.38;5.18;;;;;;;18.77;55.55;101869.34;5136306;27;20036;-60
2022/05/17 02:23:09;;;;;;;6.72;4.90;;;;;;;18.75;55.47;101861.31;5136312;27;20039;-61
2022/05/17 02:25:36;;;;;;;9.38;5.43;;;;;;;18.75;55.57;101863.19;5136220;27;20043;-62
2022/05/17 02:28:08;;;;;;;8.20;5.57;;;;;;;18.78;55.41;101868.34;5135379;27;20042;-60
2022/05/17 02:30:35;;;;;;;8.35;5.38;;;;;;;18.80;55.81;101869.06;5136294;27;20047;-60
2022/05/17 02:33:03;;;;;;;13.52;5.65;;;;;;;18.82;55.86;101870.66;5134696;27;20489;-61
2022/05/17 02:35:29;;;;;;;15.20;5.63;;;;;;;18.83;55.81;101876.97;5136075;27;20047;-61
2022/05/17 02:37:56;;;;;;;9.57;5.63;;;;;;;18.85;56.04;101875.84;5133590;27;20405;-60
2022/05/17 02:40:22;;;;;;;11.02;5.78;;;;;;;18.87;55.60;101873.84;5135003;27;20039;-61
2022/05/17 02:42:49;;;;;;;8.05;5.47;;;;;;;18.91;55.89;101869.84;5134986;27;20217;-61
2022/05/17 02:45:16;;;;;;;11.27;5.53;;;;;;;18.95;55.63;101873.13;5135654;27;20049;-61
2022/05/17 02:47:42;;;;;;;10.07;5.88;;;;;;;18.97;56.16;101874.72;5135215;27;20051;-60
2022/05/17 02:50:10;;;;;;;12.82;6.05;;;;;;;19.00;56.15;101871.72;5134506;27;20043;-61
2022/05/17 02:52:38;;;;;;;8.25;4.85;;;;;;;19.03;55.84;101874.16;5135716;27;20043;-59
2022/05/17 02:55:07;;;;;;;11.23;5.47;;;;;;;19.05;55.85;101872.16;5135698;27;20382;-60
2022/05/17 02:57:34;;;;;;;8.60;5.13;;;;;;;19.08;55.96;101871.03;5134816;27;20074;-60
2022/05/17 03:00:01;;;;;;;11.30;5.55;;;;;;;19.10;55.77;101870.88;5135608;27;20043;-61
2022/05/17 03:02:27;;;;;;;9.85;5.35;;;;;;;19.13;55.55;101867.88;5135787;27;20042;-60
2022/05/17 03:04:54;;;;;;;12.73;6.20;;;;;;;19.14;55.68;101872.34;5135489;27;20438;-61
2022/05/17 03:07:21;;;;;;;8.18;5.47;;;;;;;19.12;55.90;101875.19;5135699;27;20047;-61
2022/05/17 03:09:47;;;;;;;10.15;5.82;;;;;;;19.13;55.62;101876.91;5134176;27;20045;-60
2022/05/17 03:12:14;;;;;;;8.40;5.45;;;;;;;19.13;56.19;101874.19;5135343;27;20080;-59
2022/05/17 03:14:41;;;;;;;10.13;6.45;;;;;;;19.14;56.15;101880.50;5135116;27;20062;-60
2022/05/17 03:17:15;;;;;;;12.45;6.30;;;;;;;19.13;56.01;101876.91;5135431;27;20039;-61
2022/05/17 03:19:43;;;;;;;12.55;6.03;;;;;;;19.16;56.08;101884.81;5134126;27;20035;-60
2022/05/17 03:22:10;;;;;;;8.30;5.43;;;;;;;19.19;56.15;101883.66;5135090;27;20073;-61
2022/05/17 03:24:38;;;;;;;10.73;5.47;;;;;;;19.21;55.97;101889.84;5134942;27;20505;-60
2022/05/17 03:27:24;;;;;;;7.50;5.22;;;;;;;19.23;55.89;101885.09;5133540;27;20047;-60
2022/05/17 03:29:51;;;;;;;8.00;5.70;;;;;;;19.21;55.95;101885.25;5114764;28;20062;-61
2022/05/17 03:32:19;;;;;;;9.90;5.78;;;;;;;19.20;55.81;101888.09;5114602;28;20044;-60
2022/05/17 03:34:46;;;;;;;13.60;6.45;;;;;;;19.20;56.35;101882.66;5114032;28;20048;-61
2022/05/17 03:37:13;;;;;;;12.10;5.40;;;;;;;19.22;56.21;101877.94;5113726;28;20046;-61
2022/05/17 03:39:39;;;;;;;8.68;5.40;;;;;;;19.22;55.86;101880.66;5114058;28;20074;-60
2022/05/17 03:42:09;;;;;;;10.80;6.13;;;;;;;19.22;56.21;101876.06;5114379;28;20386;-61
2022/05/17 03:44:37;;;;;;;15.00;7.18;;;;;;;19.21;55.91;101874.34;5114391;28;20082;-60
2022/05/17 03:47:06;;;;;;;11.15;6.22;;;;;;;19.24;56.15;101881.38;5101322;27;20036;-60
2022/05/17 03:49:37;;;;;;;11.05;6.22;;;;;;;19.23;55.81;101876.94;5134842;27;20058;-60
2022/05/17 03:52:04;;;;;;;12.65;6.28;;;;;;;19.23;55.87;101875.06;5134597;27;20041;-60
2022/05/17 03:54:32;;;;;;;13.55;6.07;;;;;;;19.22;56.12;101870.63;5133193;27;20501;-61
2022/05/17 03:56:58;;;;;;;9.80;6.28;;;;;;;19.22;56.00;101883.38;5131477;27;20074;-60
2022/05/17 03:59:26;;;;;;;9.07;5.60;;;;;;;19.20;56.03;101879.94;5134642;27;20031;-61
2022/05/17 04:01:52;;;;;;;10.77;6.30;;;;;;;19.18;56.19;101877.34;5134550;27;20039;-60
2022/05/17 04:04:19;;;;;;;10.82;6.38;;;;;;;19.18;55.97;101882.81;5134327;27;20039;-60
2022/05/17 04:06:46;;;;;;;14.82;6.82;;;;;;;19.21;56.18;101881.66;5132776;27;20043;-59
2022/05/17 04:09:14;;;;;;;10.63;6.55;;;;;;;19.24;56.67;101886.84;5133398;27;20113;-60
2022/05/17 04:11:40;;;;;;;12.13;6.55;;;;;;;19.27;56.23;101883.81;5134503;27;20388;-60
2022/05/17 04:14:08;;;;;;;9.85;6.28;;;;;;;19.31;56.68;101888.00;5134218;27;20043;-60
2022/05/17 04:16:37;;;;;;;9.75;5.97;;;;;;;19.34;56.57;101893.19;5134004;27;20047;-61
2022/05/17 04:19:05;;;;;;;11.75;5.85;;;;;;;19.35;56.69;101890.31;5134160;27;20046;-59
2022/05/17 04:21:34;;;;;;;9.63;6.47;;;;;;;19.36;56.40;101897.50;5134398;27;20035;-61
2022/05/17 04:24:01;;;;;;;9.82;6.85;;;;;;;19.35;56.43;101893.06;5134315;27;20039;-61
2022/05/17 04:26:27;;;;;;;11.90;6.25;;;;;;;19.33;56.62;101896.91;5134401;27;20118;-60
2022/05/17 04:28:54;;;;;;;14.25;7.47;;;;;;;19.31;56.88;101893.44;5096709;28;20039;-60
2022/05/17 04:31:21;;;;;;;11.88;7.15;;;;;;;19.28;56.64;101891.84;5113710;28;20420;-61
2022/05/17 04:33:48;;;;;;;11.25;6.70;;;;;;;19.25;56.80;101896.72;5113211;28;20481;-60
2022/05/17 04:36:15;;;;;;;9.63;6.55;;;;;;;19.21;56.79;101898.00;5113669;28;20043;-60
2022/05/17 04:38:42;;;;;;;14.57;6.47;;;;;;;19.22;56.94;101906.03;5129710;28;20058;-60
2022/05/17 04:41:08;;;;;;;9.10;6.60;;;;;;;19.25;56.96;101905.75;5133226;28;20049;-61
2022/05/17 04:43:35;;;;;;;13.20;6.57;;;;;;;19.28;57.08;101907.34;5133705;27;20424;-65
2022/05/17 04:46:01;;;;;;;11.10;7.30;;;;;;;19.30;56.83;101905.34;5134168;28;20039;-60
2022/05/17 04:48:29;;;;;;;11.18;7.03;;;;;;;19.33;57.17;101905.09;5133494;28;20046;-61
2022/05/17 04:50:55;;;;;;;13.90;7.50;;;;;;;19.35;57.12;101908.53;5134236;27;20035;-60
2022/05/17 04:53:26;;;;;;;13.57;7.90;;;;;;;19.38;57.20;101907.41;5132971;28;20492;-61
2022/05/17 04:55:52;;;;;;;13.13;8.15;;;;;;;19.40;57.19;101919.88;5134307;28;20039;-60
2022/05/17 04:58:19;;;;;;;16.10;8.18;;;;;;;19.45;57.41;101909.41;5133092;28;20051;-60
2022/05/17 05:00:45;;;;;;;14.85;8.32;;;;;;;19.48;57.05;101920.03;5134163;28;20134;-60
2022/05/17 05:03:12;;;;;;;12.18;8.63;;;;;;;19.50;57.33;101915.31;5116923;27;20044;-60
2022/05/17 05:05:38;;;;;;;11.48;7.90;;;;;;;19.52;57.49;101917.88;5137847;27;20404;-59
2022/05/17 05:08:05;;;;;;;13.60;8.35;;;;;;;19.51;57.26;101916.16;5136258;27;20054;-60
2022/05/17 05:10:32;;;;;;;12.90;8.25;;;;;;;19.51;57.38;101919.75;5137781;27;20050;-61
2022/05/17 05:12:58;;;;;;;11.50;8.30;;;;;;;19.52;57.07;101931.50;5137608;27;20043;-61
2022/05/17 05:15:25;;;;;;;13.10;8.07;;;;;;;19.53;57.30;101925.09;5137627;27;20043;-61
2022/05/17 05:17:51;;;;;;;14.43;8.18;;;;;;;19.57;57.47;101924.66;5136849;27;20405;-60
2022/05/17 05:20:18;;;;;;;10.20;8.02;;;;;;;19.61;57.07;101927.97;5138337;27;20031;-59
2022/05/17 05:22:44;;;;;;;13.13;8.02;;;;;;;19.62;57.51;101921.50;5139513;27;20054;-60
2022/05/17 05:25:13;;;;;;;11.13;8.13;;;;;;;19.66;57.23;101932.00;5137267;27;20049;-60
2022/05/17 05:27:41;;;;;;;12.52;7.55;;;;;;;19.71;57.17;101927.97;5132374;27;20039;-60
2022/05/17 05:30:11;;;;;;;11.63;8.13;;;;;;;19.79;57.31;101939.88;5137399;27;20039;-60
2022/05/17 05:32:38;;;;;;;11.25;8.70;;;;;;;19.86;57.09;101934.72;5137858;27;20035;-59
2022/05/17 05:35:05;;;;;;;12.98;8.38;;;;;;;19.91;57.57;101935.16;5137082;27;20043;-60
2022/05/17 05:37:32;;;;;;;13.00;8.38;;;;;;;19.96;57.15;101939.19;5132319;27;20463;-59
2022/05/17 05:39:59;;;;;;;12.25;8.77;;;;;;;20.03;57.15;101938.59;5137196;27;20424;-60
2022/05/17 05:42:27;;;;;;;13.07;8.75;;;;;;;20.09;57.43;101941.66;5137035;27;20043;-60
2022/05/17 05:45:05;;;;;;;16.58;9.10;;;;;;;20.15;57.64;101946.53;5136901;27;20078;-60
2022/05/17 05:47:31;;;;;;;14.02;8.88;;;;;;;20.21;57.40;101942.34;5136003;27;20069;-60
2022/05/17 05:49:58;;;;;;;14.68;8.55;;;;;;;20.28;57.05;101947.09;5136969;27;20400;-60
2022/05/17 05:52:26;;;;;;;15.13;9.02;;;;;;;20.34;57.20;101945.66;5137679;27;20027;-60
2022/05/17 05:54:53;;;;;;;12.82;8.68;;;;;;;20.39;57.14;101956.13;5136817;27;20043;-59
2022/05/17 05:57:19;;;;;;;13.93;8.90;;;;;;;20.43;56.68;101955.72;5121150;27;20035;-60
2022/05/17 05:59:46;;;;;;;12.18;7.90;;;;;;;20.46;56.63;101951.84;5137107;27;20039;-60
2022/05/17 06:02:12;;;;;;;13.80;9.60;;;;;;;20.49;56.82;101951.53;5118882;27;20039;-60
2022/05/17 06:04:39;;;;;;;16.02;8.75;;;;;;;20.53;56.77;101952.97;5136569;27;20043;-59
2022/05/17 06:07:06;;;;;;;11.05;8.45;;;;;;;20.58;56.77;101956.13;5135059;27;20055;-59
2022/05/17 06:09:33;;;;;;;13.00;9.20;;;;;;;20.62;56.79;101954.81;5116296;28;20046;-59
2022/05/17 06:11:59;;;;;;;13.90;9.43;;;;;;;20.68;56.52;101964.28;5116577;28;20058;-60
2022/05/17 06:14:27;;;;;;;13.93;9.65;;;;;;;20.74;56.41;101964.53;5115848;28;20040;-58
2022/05/17 06:16:53;;;;;;;18.80;8.85;;;;;;;20.81;56.41;101965.72;5115888;28;20126;-60
2022/05/17 06:19:22;;;;;;;16.90;9.85;;;;;;;20.90;56.58;101970.28;5135959;27;20035;-58
2022/05/17 06:21:49;;;;;;;12.15;8.38;;;;;;;21.04;56.05;101970.81;5118509;27;20067;-60
2022/05/17 06:24:16;;;;;;;17.63;8.88;;;;;;;21.14;56.23;101966.16;5136135;27;20039;-60
2022/05/17 06:26:44;;;;;;;15.15;9.15;;;;;;;21.23;56.05;101974.34;5136664;27;20039;-60
2022/05/17 06:29:10;;;;;;;13.25;8.75;;;;;;;21.31;55.43;101976.31;5135775;27;20070;-60
2022/05/17 06:31:37;;;;;;;15.82;9.77;;;;;;;21.37;55.43;101978.44;5136588;27;20043;-60
2022/05/17 06:34:04;;;;;;;15.80;8.82;;;;;;;21.41;55.62;101976.25;5135785;27;20495;-59
2022/05/17 06:36:31;;;;;;;15.77;8.75;;;;;;;21.46;55.14;101977.53;5136169;27;20047;-60
2022/05/17 06:39:18;;;;;;;12.70;9.00;;;;;;;21.53;55.07;101977.78;5135216;27;20043;-60
2022/05/17 06:41:47;;;;;;;15.65;10.43;;;;;;;21.62;55.53;101976.03;5117777;27;20404;-61
2022/05/17 06:44:13;;;;;;;15.60;9.60;;;;;;;21.72;55.17;101983.16;5135936;27;20039;-61
2022/05/17 06:46:40;;;;;;;16.65;9.65;;;;;;;21.82;55.64;101983.09;5135205;27;20039;-60
2022/05/17 06:49:08;;;;;;;12.40;8.50;;;;;;;21.92;54.68;101992.09;5135538;27;20043;-61
2022/05/17 06:51:37;;;;;;;12.68;8.80;;;;;;;22.00;54.59;101991.31;5131232;27;20066;-60
2022/05/17 06:54:04;;;;;;;17.75;8.98;;;;;;;22.07;54.53;101984.22;5135516;27;20039;-61
2022/05/17 06:56:32;;;;;;;13.05;9.00;;;;;;;22.13;54.70;101989.94;5134798;27;20071;-62
2022/05/17 06:59:01;;;;;;;16.88;9.25;;;;;;;22.19;54.29;101993.91;5135477;27;20109;-61
2022/05/17 07:01:27;;;;;;;12.27;8.63;;;;;;;22.24;53.96;101999.78;5135958;27;20085;-62
2022/05/17 07:03:54;;;;;;;13.05;8.25;;;;;;;22.32;53.90;101996.28;5135408;27;20039;-60
2022/05/17 07:06:21;;;;;;;13.25;8.27;;;;;;;22.41;53.80;102000.81;5135789;27;20039;-61
2022/05/17 07:08:48;;;;;;;16.52;9.30;;;;;;;22.49;53.88;102003.63;5135284;27;20122;-61
2022/05/17 07:14:00;;;;;;;14.82;9.25;;;;;;;22.62;53.76;102003.19;5134890;27;20058;-61
2022/05/17 07:16:26;;;;;;;13.13;9.10;;;;;;;22.68;53.79;102005.31;5150095;27;20065;-61
2022/05/17 07:18:53;;;;;;;15.48;9.73;;;;;;;22.72;53.46;102003.97;5155798;27;20050;-62
2022/05/17 07:21:39;;;;;;;13.10;9.50;;;;;;;22.76;53.76;102014.44;5137466;27;20035;-61
2022/05/17 07:24:06;;;;;;;14.10;9.93;;;;;;;22.79;53.37;102011.38;5134997;27;20043;-60
2022/05/17 07:26:33;;;;;;;14.15;10.02;;;;;;;22.81;53.11;102017.59;5134676;27;20038;-61
2022/05/17 07:28:59;;;;;;;13.55;9.65;;;;;;;22.85;53.47;102017.25;5135068;27;20428;-61
2022/05/17 07:31:26;;;;;;;15.68;9.82;;;;;;;22.89;53.47;102016.78;5133776;27;20047;-60
2022/05/17 07:33:52;;;;;;;14.25;10.55;;;;;;;22.95;53.72;102012.53;5134618;27;20043;-61
2022/05/17 07:36:19;;;;;;;11.55;9.30;;;;;;;23.00;53.55;102012.91;5133549;27;20120;-61
2022/05/17 07:38:47;;;;;;;12.90;9.88;;;;;;;23.04;53.78;102017.94;5134720;27;20400;-61
2022/05/17 07:41:13;;;;;;;16.25;9.80;;;;;;;23.06;53.74;102009.56;5133676;27;20039;-62
2022/05/17 07:43:40;;;;;;;14.23;8.98;;;;;;;23.11;53.76;102023.63;5134098;27;20039;-64
2022/05/17 07:46:06;;;;;;;14.65;9.23;;;;;;;23.15;53.48;102022.28;5134820;27;20082;-63
2022/05/17 07:48:34;;;;;;;15.98;9.18;;;;;;;23.20;54.14;102024.53;5134648;27;20043;-64
2022/05/17 07:51:01;;;;;;;15.25;9.75;;;;;;;23.23;54.22;102030.53;5134790;27;20047;-64
2022/05/17 07:53:27;;;;;;;15.20;10.32;;;;;;;23.26;53.65;102027.47;5134593;27;20382;-63
2022/05/17 07:55:54;;;;;;;15.90;10.10;;;;;;;23.30;54.01;102017.91;5132179;27;20027;-64
2022/05/17 07:58:20;;;;;;;29.77;10.25;;;;;;;23.32;53.62;102025.97;5134666;27;20051;-65
2022/05/17 08:00:48;;;;;;;20.45;9.18;;;;;;;23.36;54.08;102024.63;5116606;27;20039;-63
2022/05/17 08:03:16;;;;;;;11.90;8.60;;;;;;;23.37;53.75;102020.84;5116114;27;20050;-63
2022/05/17 08:05:44;;;;;;;14.02;8.40;;;;;;;23.34;53.67;102015.69;5134445;27;20054;-63
2022/05/17 08:08:11;;;;;;;12.57;8.30;;;;;;;23.31;53.68;102019.63;5134283;27;20051;-63
2022/05/17 08:10:38;;;;;;;13.15;7.57;;;;;;;23.30;53.36;102012.41;5133889;27;20395;-64
2022/05/17 08:13:07;;;;;;;15.60;7.18;;;;;;;23.28;53.63;102014.47;5133975;27;20484;-63
2022/05/17 08:15:35;;;;;;;13.35;7.25;;;;;;;23.27;53.52;102014.63;5134366;27;20122;-63
2022/05/17 08:18:01;;;;;;;10.88;7.25;;;;;;;23.24;53.29;102007.59;5134329;27;20053;-63
2022/05/17 08:20:29;;;;;;;12.80;7.22;;;;;;;23.22;53.14;102020.59;5134225;27;20066;-63
2022/05/17 08:22:56;;;;;;;10.73;6.90;;;;;;;23.22;53.22;102023.34;5134172;28;20054;-63
2022/05/17 08:28:09;;;;;;;10.10;7.20;;;;;;;23.25;53.24;102023.03;5132097;28;20062;-61
2022/05/17 08:30:37;;;;;;;10.13;6.82;;;;;;;23.25;53.41;102016.69;5132892;28;20489;-62
2022/05/17 08:33:16;;;;;;;10.40;7.60;;;;;;;23.24;53.11;102013.06;5133748;27;20036;-62
2022/05/17 08:35:56;;;;;;;11.18;7.35;;;;;;;23.26;53.29;102010.16;5132014;27;20053;-62
2022/05/17 08:38:25;;;;;;;12.93;6.75;;;;;;;23.29;53.02;102010.69;5137107;27;20047;-62
2022/05/17 08:41:05;;;;;;;8.70;5.95;;;;;;;23.31;52.51;102013.28;5136963;27;20047;-62
2022/05/17 08:43:55;;;;;;;11.98;5.57;;;;;;;23.33;52.38;102023.06;5138315;27;20043;-62
2022/05/17 08:46:28;;;;;;;11.02;4.85;;;;;;;23.37;52.20;102018.09;5138270;27;20035;-61
2022/05/17 08:49:22;;;;;;;14.27;5.30;;;;;;;23.34;51.96;102023.91;5136886;27;20503;-61
2022/05/17 08:51:59;;;;;;;9.32;4.85;;;;;;;23.31;51.82;102014.13;5137884;27;20054;-62
2022/05/17 08:54:30;;;;;;;11.95;5.15;;;;;;;23.30;51.69;102006.09;5135915;27;20046;-62
2022/05/17 08:57:25;;;;;;;7.40;4.90;;;;;;;23.29;51.41;102015.31;5137979;27;20124;-62
2022/05/17 08:59:52;;;;;;;8.98;3.80;;;;;;;23.32;51.52;102015.00;5129760;27;20063;-62
2022/05/17 09:02:43;;;;;;;13.30;4.03;;;;;;;23.32;51.38;102015.00;5137850;27;20042;-62
2022/05/17 09:05:24;;;;;;;7.32;3.55;;;;;;;23.34;50.94;102013.81;5138107;27;20477;-61
2022/05/17 09:08:11;;;;;;;7.68;2.95;;;;;;;23.35;50.84;102023.75;5137708;27;20051;-62
2022/05/17 09:10:43;;;;;;;8.73;3.72;;;;;;;23.37;50.79;102027.19;5138555;27;20057;-62
2022/05/17 09:13:15;;;;;;;7.85;3.88;;;;;;;23.38;50.73;102025.31;5138103;27;20039;-62
2022/05/17 09:15:44;;;;;;;8.40;3.40;;;;;;;23.42;50.80;102030.28;5137798;27;20046;-62
2022/05/17 09:18:16;;;;;;;7.55;3.22;;;;;;;23.41;50.37;102031.31;5137780;27;20043;-62
2022/05/17 09:20:43;;;;;;;11.40;4.00;;;;;;;23.41;50.57;102033.19;5137577;27;20035;-62
2022/05/17 09:23:11;;;;;;;8.68;3.70;;;;;;;23.39;50.71;102032.50;5137329;27;20131;-62
2022/05/17 09:25:45;;;;;;;6.95;3.33;;;;;;;23.41;50.59;102030.47;5137719;27;20039;-62
2022/05/17 09:28:23;;;;;;;11.23;3.25;;;;;;;23.40;50.48;102023.25;5137547;27;20051;-61
2022/05/17 09:31:10;;;;;;;8.00;3.65;;;;;;;23.38;50.39;102017.94;5137408;27;20067;-62
2022/05/17 09:33:40;;;;;;;5.55;3.25;;;;;;;23.38;50.55;102009.72;5137022;27;20039;-61
2022/05/17 09:36:08;;;;;;;9.15;3.45;;;;;;;23.37;50.33;102002.50;5137157;27;20393;-61
2022/05/17 09:38:37;;;;;;;5.93;3.90;;;;;;;23.38;50.08;102006.13;5137364;27;20043;-61
2022/05/17 09:41:11;;;;;;;8.98;5.07;;;;;;;23.38;50.11;102009.72;5137503;27;20388;-62
2022/05/17 09:43:40;;;;;;;9.30;5.03;;;;;;;23.38;50.42;101998.75;5118684;27;20049;-61
2022/05/17 09:46:15;;;;;;;12.98;6.95;;;;;;;23.42;50.71;102008.38;5139031;27;20047;-61
2022/05/17 09:54:46;;;;;;;10.02;7.18;;;;;;;23.51;50.89;101994.69;5137032;27;20388;-61
2022/05/17 09:57:22;;;;;;;11.63;6.57;;;;;;;23.56;51.01;101997.81;5137128;27;20046;-62
2022/05/17 09:59:54;;;;;;;11.77;5.63;;;;;;;23.61;51.16;101995.44;5136758;27;20509;-62
2022/05/17 10:02:28;;;;;;;11.05;5.63;;;;;;;23.65;50.68;101994.09;5136899;27;20053;-61
2022/05/17 10:04:57;;;;;;;13.15;5.38;;;;;;;23.68;50.72;101988.25;5135458;27;20070;-61
2022/05/17 10:07:29;;;;;;;10.32;4.60;;;;;;;23.70;50.39;101977.97;5118354;27;20035;-61
2022/05/17 10:09:56;;;;;;;14.60;6.28;;;;;;;23.74;50.32;101977.47;5136289;27;20043;-61
2022/05/17 10:12:29;;;;;;;9.05;7.00;;;;;;;23.80;50.06;101978.72;5136245;27;20051;-61
2022/05/17 10:15:06;;;;;;;17.90;8.63;;;;;;;23.87;50.17;101977.03;5136272;27;20045;-61
2022/05/17 10:17:57;;;;;;;12.10;7.38;;;;;;;23.90;50.29;101967.59;5136633;27;20050;-60
2022/05/17 10:20:29;;;;;;;11.68;7.72;;;;;;;23.96;50.17;101970.53;5114405;28;20044;-61
2022/05/17 10:23:01;;;;;;;15.70;9.63;;;;;;;24.02;50.42;101969.84;5115779;28;20036;-61
2022/05/17 10:25:41;;;;;;;18.10;10.43;;;;;;;24.08;50.56;101971.06;5115376;27;20058;-61
2022/05/17 10:28:40;;;;;;;14.60;9.98;;;;;;;24.18;50.79;101979.13;5115953;28;20039;-61
2022/05/17 10:31:22;;;;;;;19.33;10.50;;;;;;;24.35;50.81;101967.16;5115775;28;20040;-62
2022/05/17 10:33:48;;;;;;;15.38;11.35;;;;;;;24.53;50.73;101958.75;5115136;28;20065;-61
2022/05/17 10:36:25;;;;;;;16.63;10.60;;;;;;;24.66;50.91;101957.19;5122947;27;20053;-62
2022/05/17 10:39:27;;;;;;;11.30;8.95;;;;;;;24.83;50.51;101959.91;5135630;27;20062;-63
2022/05/17 10:41:54;;;;;;;11.52;8.93;;;;;;;25.02;50.19;101954.03;5136287;27;20047;-62
2022/05/17 10:44:22;;;;;;;9.80;6.68;;;;;;;25.17;50.10;101955.00;5135506;27;20043;-62
2022/05/17 10:46:56;;;;;;;12.15;6.13;;;;;;;25.37;49.45;101960.13;5136072;27;20053;-63
2022/05/17 10:49:47;;;;;;;9.15;6.15;;;;;;;25.55;48.81;101956.06;5135534;27;20043;-61
2022/05/17 10:52:22;;;;;;;15.13;6.40;;;;;;;25.75;48.39;101952.88;5136104;27;20397;-63
2022/05/17 10:55:03;;;;;;;10.25;6.68;;;;;;;25.90;48.59;101953.81;5135673;27;20050;-62
2022/05/17 10:57:51;;;;;;;12.40;6.72;;;;;;;26.05;48.07;101949.25;5114258;27;20050;-62
2022/05/17 11:00:23;;;;;;;14.75;6.72;;;;;;;26.20;47.83;101950.19;5114396;28;20531;-62
2022/05/17 11:03:07;;;;;;;10.82;7.10;;;;;;;26.30;47.51;101944.41;5114851;28;20035;-62
2022/05/17 11:06:10;;;;;;;9.80;6.40;;;;;;;26.33;47.09;101952.34;5097158;28;20063;-62
2022/05/17 11:09:14;;;;;;;12.07;6.05;;;;;;;26.43;47.27;101932.78;5109999;27;20036;-62
2022/05/17 11:11:52;;;;;;;11.48;6.45;;;;;;;26.46;46.74;101946.19;5114282;28;20039;-62
2022/05/17 11:14:27;;;;;;;12.55;7.47;;;;;;;26.44;46.75;101943.63;5126821;27;20035;-62
2022/05/17 11:17:24;;;;;;;12.07;6.00;;;;;;;26.41;46.55;101932.13;5131975;27;20042;-62
2022/05/17 11:20:07;;;;;;;11.27;5.70;;;;;;;26.38;46.42;101936.09;5133477;27;20047;-61
2022/05/17 11:22:43;;;;;;;11.70;6.55;;;;;;;26.39;46.30;101931.44;5132557;27;20054;-62
2022/05/17 11:25:45;;;;;;;7.38;5.05;;;;;;;26.36;46.31;101934.59;5134189;27;20035;-62
2022/05/17 11:28:31;;;;;;;7.78;5.10;;;;;;;26.40;46.33;101930.41;5129344;27;20119;-62
2022/05/17 11:31:11;;;;;;;9.13;5.72;;;;;;;26.43;46.15;101932.78;5131048;27;20110;-62
2022/05/17 11:33:40;;;;;;;9.07;4.78;;;;;;;26.47;46.31;101925.88;5129892;27;20063;-61
2022/05/17 11:36:09;;;;;;;7.75;4.38;;;;;;;26.51;46.10;101927.19;5134231;27;20027;-62
2022/05/17 11:38:35;;;;;;;8.77;4.50;;;;;;;26.56;45.95;101922.84;5134503;27;20035;-62
2022/05/17 11:41:06;;;;;;;6.50;3.75;;;;;;;26.59;45.95;101922.47;5135014;27;20131;-62
2022/05/17 11:44:02;;;;;;;11.77;3.72;;;;;;;26.68;45.54;101917.72;5134431;27;20035;-62
2022/05/17 11:46:29;;;;;;;;;;;;;;;26.79;45.74;101917.28;5135414;27;20035;-62
2022/05/17 11:49:07;;;;;;;10.98;3.35;;;;;;;26.94;45.18;101916.44;5134445;27;20295;-62